createdAt,value
2022-09-16T00:00:50.692Z,5.30
2022-09-16T00:03:17.916Z,4.70
2022-09-16T00:05:49.988Z,5.67
2022-09-16T00:08:17.805Z,6.33
2022-09-16T00:10:45.632Z,5.57
2022-09-16T00:13:13.188Z,5.70
2022-09-16T00:15:49.054Z,4.60
2022-09-16T00:18:15.612Z,5.97
2022-09-16T00:20:50.532Z,5.10
2022-09-16T00:23:18.304Z,5.10
2022-09-16T00:25:44.736Z,4.60
2022-09-16T00:28:11.252Z,4.73
2022-09-16T00:30:37.709Z,4.37
2022-09-16T00:33:04.228Z,4.87
2022-09-16T00:35:30.724Z,4.57
2022-09-16T00:37:57.336Z,4.97
2022-09-16T00:40:23.893Z,5.07
2022-09-16T00:42:50.514Z,4.47
2022-09-16T00:45:19.728Z,4.63
2022-09-16T00:47:51.988Z,4.80
2022-09-16T00:50:32.584Z,5.33
2022-09-16T00:53:00.164Z,4.47
2022-09-16T00:55:28.950Z,4.37
2022-09-16T00:57:57.841Z,4.30
2022-09-16T01:00:24.590Z,5.10
2022-09-16T01:02:51.486Z,4.57
2022-09-16T01:05:21.371Z,3.80
2022-09-16T01:07:50.117Z,3.83
2022-09-16T01:10:19.329Z,4.80
2022-09-16T01:12:49.091Z,4.40
2022-09-16T01:15:16.952Z,4.30
2022-09-16T01:17:58.252Z,4.97
2022-09-16T01:20:48.081Z,5.27
2022-09-16T01:23:54.041Z,4.70
2022-09-16T01:26:57.846Z,4.93
2022-09-16T01:29:36.545Z,5.30
2022-09-16T01:32:27.524Z,4.60
2022-09-16T01:35:04.939Z,6.20
2022-09-16T01:38:16.136Z,5.03
2022-09-16T01:41:13.504Z,5.40
2022-09-16T01:43:54.712Z,4.77
2022-09-16T01:46:33.482Z,5.10
2022-09-16T01:49:06.037Z,4.90
2022-09-16T01:51:39.580Z,6.07
2022-09-16T01:54:15.319Z,4.90
2022-09-16T01:56:52.672Z,5.30
2022-09-16T01:59:32.467Z,5.30
2022-09-16T02:02:03.700Z,5.67
2022-09-16T02:04:34.674Z,6.40
2022-09-16T02:07:02.595Z,5.70
2022-09-16T02:09:34.136Z,6.63
2022-09-16T02:12:05.893Z,6.23
2022-09-16T02:14:36.192Z,5.60
2022-09-16T02:17:10.604Z,5.87
2022-09-16T02:19:41.015Z,5.87
2022-09-16T02:22:16.923Z,5.50
2022-09-16T02:24:45.664Z,5.80
2022-09-16T02:27:16.771Z,5.40
2022-09-16T02:29:47.052Z,5.27
2022-09-16T02:32:14.024Z,6.23
2022-09-16T02:34:43.900Z,6.87
2022-09-16T02:37:23.969Z,7.00
2022-09-16T02:39:55.138Z,6.57
2022-09-16T02:42:21.739Z,7.10
2022-09-16T02:44:48.239Z,6.50
2022-09-16T02:47:30.447Z,5.83
2022-09-16T02:50:00.877Z,5.80
2022-09-16T02:52:33.799Z,6.77
2022-09-16T02:55:03.127Z,5.87
2022-09-16T02:57:29.979Z,6.20
2022-09-16T02:59:56.899Z,4.93
2022-09-16T03:02:23.563Z,6.07
2022-09-16T03:04:50.112Z,6.30
2022-09-16T03:07:17.012Z,6.87
2022-09-16T03:09:45.763Z,6.63
2022-09-16T03:12:21.027Z,6.43
2022-09-16T03:15:24.917Z,5.77
2022-09-16T03:18:13.131Z,6.80
2022-09-16T03:20:55.012Z,6.07
2022-09-16T03:23:38.832Z,7.10
2022-09-16T03:26:22.376Z,6.70
2022-09-16T03:29:18.227Z,7.93
2022-09-16T03:31:59.227Z,6.37
2022-09-16T03:34:45.435Z,5.80
2022-09-16T03:37:15.187Z,6.40
2022-09-16T03:39:42.013Z,5.90
2022-09-16T03:42:11.184Z,6.93
2022-09-16T03:44:40.274Z,5.30
2022-09-16T03:47:08.319Z,5.20
2022-09-16T03:49:35.611Z,6.90
2022-09-16T03:52:04.709Z,6.47
2022-09-16T03:54:31.886Z,6.80
2022-09-16T03:56:58.587Z,5.80
2022-09-16T03:59:25.108Z,8.10
2022-09-16T04:01:51.612Z,6.23
2022-09-16T04:04:19.271Z,6.20
2022-09-16T04:06:45.888Z,6.70
2022-09-16T04:09:13.534Z,5.90
2022-09-16T04:11:40.520Z,5.53
2022-09-16T04:14:07.548Z,5.93
2022-09-16T04:16:34.724Z,5.40
2022-09-16T04:19:01.274Z,6.70
2022-09-16T04:21:29.347Z,7.30
2022-09-16T04:23:55.994Z,6.17
2022-09-16T04:26:22.486Z,6.60
2022-09-16T04:28:49.303Z,6.17
2022-09-16T04:31:16.061Z,6.37
2022-09-16T04:33:42.843Z,5.77
2022-09-16T04:36:19.785Z,6.10
2022-09-16T04:38:47.696Z,6.47
2022-09-16T04:41:17.924Z,7.40
2022-09-16T04:43:44.418Z,6.60
2022-09-16T04:46:11.397Z,6.30
2022-09-16T04:48:38.472Z,6.80
2022-09-16T04:51:08.876Z,6.47
2022-09-16T04:53:36.273Z,6.17
2022-09-16T04:56:13.212Z,7.50
2022-09-16T04:58:39.661Z,6.17
2022-09-16T05:01:12.901Z,7.70
2022-09-16T05:03:44.606Z,6.17
2022-09-16T05:06:20.460Z,6.50
2022-09-16T05:08:48.707Z,6.60
2022-09-16T05:11:17.994Z,7.20
2022-09-16T05:13:44.915Z,7.10
2022-09-16T05:16:13.802Z,6.60
2022-09-16T05:18:41.484Z,7.00
2022-09-16T05:21:10.912Z,6.83
2022-09-16T05:23:38.093Z,6.20
2022-09-16T05:26:06.869Z,9.03
2022-09-16T05:28:34.244Z,7.10
2022-09-16T05:31:20.475Z,7.40
2022-09-16T05:33:54.908Z,6.13
2022-09-16T05:36:22.131Z,6.30
2022-09-16T05:39:10.986Z,7.40
2022-09-16T05:41:35.319Z,7.80
2022-09-16T05:44:02.324Z,6.60
2022-09-16T05:46:29.043Z,6.30
2022-09-16T05:48:56.605Z,7.57
2022-09-16T05:51:24.438Z,9.60
2022-09-16T05:53:51.813Z,7.57
2022-09-16T05:56:20.584Z,7.83
2022-09-16T05:58:47.328Z,7.87
2022-09-16T06:01:19.253Z,10.00
2022-09-16T06:03:47.341Z,7.40
2022-09-16T06:06:24.064Z,7.10
2022-09-16T06:08:51.626Z,6.67
2022-09-16T06:11:18.380Z,6.10
2022-09-16T06:13:44.997Z,6.20
2022-09-16T06:16:11.852Z,6.20
2022-09-16T06:18:38.391Z,6.90
2022-09-16T06:21:07.732Z,7.80
2022-09-16T06:23:34.843Z,7.33
2022-09-16T06:26:09.995Z,7.93
2022-09-16T06:28:36.539Z,8.27
2022-09-16T06:31:10.002Z,7.87
2022-09-16T06:33:36.720Z,7.57
2022-09-16T06:36:05.199Z,7.90
2022-09-16T06:38:31.841Z,7.40
2022-09-16T06:40:59.874Z,8.93
2022-09-16T06:43:26.954Z,8.23
2022-09-16T06:46:00.118Z,6.73
2022-09-16T06:48:27.986Z,7.20
2022-09-16T06:51:01.795Z,7.10
2022-09-16T06:53:29.879Z,8.33
2022-09-16T06:56:01.530Z,7.57
2022-09-16T06:58:29.790Z,8.57
2022-09-16T07:00:56.454Z,7.77
2022-09-16T07:03:23.164Z,8.47
2022-09-16T07:06:01.789Z,7.97
2022-09-16T07:08:29.323Z,8.13
2022-09-16T07:11:06.840Z,8.67
2022-09-16T07:13:33.611Z,8.20
2022-09-16T07:16:13.675Z,7.83
2022-09-16T07:18:41.195Z,8.23
2022-09-16T07:21:10.490Z,7.40
2022-09-16T07:23:38.077Z,8.80
2022-09-16T07:26:26.331Z,7.70
2022-09-16T07:28:54.172Z,8.57
2022-09-16T07:31:24.668Z,7.90
2022-09-16T07:33:52.924Z,8.07
2022-09-16T07:36:27.644Z,8.27
2022-09-16T07:38:57.346Z,8.87
2022-09-16T07:41:26.447Z,8.97
2022-09-16T07:43:59.012Z,8.90
2022-09-16T07:46:27.807Z,8.40
2022-09-16T07:48:54.762Z,8.97
2022-09-16T07:51:23.110Z,8.90
2022-09-16T07:53:54.148Z,8.90
2022-09-16T07:56:23.011Z,8.70
2022-09-16T07:58:49.719Z,7.67
2022-09-16T08:01:17.177Z,8.03
2022-09-16T08:03:44.841Z,9.00
2022-09-16T08:06:14.208Z,10.57
2022-09-16T08:08:41.089Z,9.67
2022-09-16T08:11:08.239Z,10.43
2022-09-16T08:13:35.959Z,9.60
2022-09-16T08:16:09.531Z,9.07
2022-09-16T08:18:36.350Z,9.10
2022-09-16T08:21:17.736Z,8.57
2022-09-16T08:23:44.473Z,7.80
2022-09-16T08:26:12.269Z,8.90
2022-09-16T08:28:57.420Z,8.57
2022-09-16T08:31:26.737Z,7.90
2022-09-16T08:33:53.344Z,7.47
2022-09-16T08:36:22.125Z,7.80
2022-09-16T08:38:52.113Z,7.77
2022-09-16T08:41:56.191Z,7.40
2022-09-16T08:44:40.789Z,7.13
2022-09-16T08:47:31.903Z,7.07
2022-09-16T08:50:01.495Z,7.40
2022-09-16T08:52:33.820Z,7.00
2022-09-16T08:55:07.176Z,6.63
2022-09-16T08:57:39.375Z,7.60
2022-09-16T09:00:17.347Z,8.20
2022-09-16T09:02:55.795Z,7.50
2022-09-16T09:05:22.685Z,6.40
2022-09-16T09:08:07.249Z,6.97
2022-09-16T09:10:43.185Z,6.80
2022-09-16T09:13:31.822Z,6.47
2022-09-16T09:16:10.907Z,6.77
2022-09-16T09:18:48.423Z,7.27
2022-09-16T09:21:27.172Z,8.63
2022-09-16T09:24:22.181Z,8.63
2022-09-16T09:26:50.866Z,6.67
2022-09-16T09:29:35.112Z,6.90
2022-09-16T09:32:23.210Z,7.60
2022-09-16T09:34:52.610Z,6.17
2022-09-16T09:37:37.621Z,6.80
2022-09-16T09:40:10.167Z,7.60
2022-09-16T09:43:18.364Z,6.50
2022-09-16T09:45:58.158Z,7.03
2022-09-16T09:48:40.261Z,7.40
2022-09-16T09:51:30.799Z,7.27
2022-09-16T09:54:06.179Z,6.80
2022-09-16T09:56:40.191Z,6.83
2022-09-16T09:59:30.280Z,6.10
2022-09-16T10:01:58.040Z,6.50
2022-09-16T10:04:24.779Z,6.60
2022-09-16T10:06:53.173Z,6.63
2022-09-16T10:09:21.157Z,7.10
2022-09-16T10:11:50.493Z,6.80
2022-09-16T10:14:37.509Z,6.67
2022-09-16T10:17:06.807Z,9.40
2022-09-16T10:19:50.365Z,6.90
2022-09-16T10:22:25.335Z,6.50
2022-09-16T10:25:00.265Z,5.17
2022-09-16T10:27:35.937Z,6.60
2022-09-16T10:30:18.946Z,6.50
2022-09-16T10:33:04.829Z,6.70
2022-09-16T10:35:34.455Z,5.83
2022-09-16T10:38:13.149Z,6.13
2022-09-16T10:40:40.011Z,6.33
2022-09-16T10:43:14.200Z,7.07
2022-09-16T10:45:46.873Z,7.13
2022-09-16T10:48:17.214Z,6.40
2022-09-16T10:50:56.959Z,6.50
2022-09-16T10:53:29.904Z,6.47
2022-09-16T10:55:58.164Z,5.80
2022-09-16T10:58:25.202Z,6.33
2022-09-16T11:00:59.535Z,7.70
2022-09-16T11:03:46.363Z,6.30
2022-09-16T11:06:29.504Z,6.73
2022-09-16T11:09:34.872Z,6.63
2022-09-16T11:12:10.376Z,6.33
2022-09-16T11:14:47.551Z,6.13
2022-09-16T11:17:26.096Z,5.47
2022-09-16T11:20:21.711Z,6.13
2022-09-16T11:23:18.665Z,5.97
2022-09-16T11:26:12.877Z,5.47
2022-09-16T11:29:14.890Z,6.70
2022-09-16T11:32:03.504Z,5.67
2022-09-16T11:34:45.505Z,6.50
2022-09-16T11:37:36.698Z,6.40
2022-09-16T11:40:24.144Z,6.20
2022-09-16T11:43:00.114Z,6.00
2022-09-16T11:45:29.564Z,5.30
2022-09-16T11:48:23.928Z,6.30
2022-09-16T11:50:53.413Z,6.23
2022-09-16T11:53:47.699Z,6.03
2022-09-16T11:56:36.021Z,5.83
2022-09-16T11:59:23.768Z,6.50
2022-09-16T12:01:58.171Z,6.20
2022-09-16T12:04:55.712Z,5.70
2022-09-16T12:07:37.593Z,5.90
2022-09-16T12:10:28.560Z,5.87
2022-09-16T12:13:08.635Z,6.43
2022-09-16T12:15:40.393Z,5.93
2022-09-16T12:18:15.335Z,5.60
2022-09-16T12:20:46.359Z,8.27
2022-09-16T12:23:21.954Z,6.03
2022-09-16T12:26:09.483Z,5.80
2022-09-16T12:28:51.731Z,6.30
2022-09-16T12:32:08.307Z,6.53
2022-09-16T12:34:38.822Z,7.37
2022-09-16T12:37:22.509Z,6.33
2022-09-16T12:39:49.831Z,6.63
2022-09-16T12:42:35.072Z,7.33
2022-09-16T12:45:13.624Z,7.07
2022-09-16T12:48:16.987Z,7.90
2022-09-16T12:50:59.919Z,7.10
2022-09-16T12:54:00.618Z,7.63
2022-09-16T12:56:42.341Z,7.87
2022-09-16T12:59:42.909Z,7.30
2022-09-16T13:02:16.793Z,7.10
2022-09-16T13:04:45.666Z,7.07
2022-09-16T13:07:27.073Z,7.80
2022-09-16T13:10:03.343Z,7.37
2022-09-16T13:12:43.151Z,6.70
2022-09-16T13:15:26.390Z,8.40
2022-09-16T13:17:53.334Z,7.20
2022-09-16T13:20:34.044Z,7.63
2022-09-16T13:23:06.693Z,6.57
2022-09-16T13:25:42.166Z,7.70
2022-09-16T13:28:28.132Z,7.57
2022-09-16T13:30:54.809Z,8.23
2022-09-16T13:33:28.065Z,7.83
2022-09-16T13:36:31.998Z,9.73
2022-09-16T13:39:01.929Z,7.77
2022-09-16T13:41:33.155Z,8.00
2022-09-16T13:44:00.083Z,8.33
2022-09-16T13:46:26.567Z,8.00
2022-09-16T13:49:13.057Z,6.97
2022-09-16T13:51:44.537Z,7.77
2022-09-16T13:54:28.275Z,6.73
2022-09-16T13:57:13.895Z,6.60
2022-09-16T14:00:02.449Z,6.87
2022-09-16T14:02:58.278Z,7.10
2022-09-16T14:05:31.060Z,8.20
2022-09-16T14:08:22.115Z,6.83
2022-09-16T14:11:18.563Z,6.30
2022-09-16T14:13:48.483Z,6.50
2022-09-16T14:16:26.872Z,5.30
2022-09-16T14:18:57.095Z,5.07
2022-09-16T14:21:24.635Z,4.40
2022-09-16T14:23:51.234Z,5.18
2022-09-16T14:26:20.214Z,5.20
2022-09-16T14:28:46.856Z,5.50
2022-09-16T14:31:20.677Z,5.30
2022-09-16T14:33:55.786Z,6.27
2022-09-16T14:36:27.200Z,6.40
2022-09-16T14:39:12.568Z,8.07
2022-09-16T14:41:52.259Z,8.40
2022-09-16T14:44:18.765Z,7.10
2022-09-16T14:46:48.709Z,8.98
2022-09-16T14:49:16.191Z,8.60
2022-09-16T14:51:56.190Z,8.43
2022-09-16T14:54:23.953Z,9.40
2022-09-16T14:57:00.335Z,8.23
2022-09-16T14:59:35.774Z,10.00
2022-09-16T15:02:41.094Z,8.57
2022-09-16T15:05:27.168Z,10.25
2022-09-16T15:08:19.829Z,9.37
2022-09-16T15:10:54.480Z,8.38
2022-09-16T15:13:24.553Z,9.20
2022-09-16T15:15:54.783Z,9.10
2022-09-16T15:18:28.694Z,11.30
2022-09-16T15:21:03.729Z,7.80
2022-09-16T15:23:30.622Z,8.13
2022-09-16T15:26:10.088Z,7.77
2022-09-16T15:28:36.522Z,8.67
2022-09-16T15:31:03.861Z,10.40
2022-09-16T15:33:39.928Z,8.20
2022-09-16T15:36:07.825Z,8.37
2022-09-16T15:38:34.519Z,7.80
2022-09-16T15:41:02.949Z,7.33
2022-09-16T15:43:35.244Z,7.23
2022-09-16T15:46:09.058Z,6.97
2022-09-16T15:48:37.966Z,6.90
2022-09-16T15:51:38.178Z,6.53
2022-09-16T15:54:07.452Z,7.00
2022-09-16T15:56:42.671Z,6.60
2022-09-16T15:59:31.991Z,6.50
2022-09-16T16:02:00.862Z,20.10
2022-09-16T16:04:32.376Z,8.27
2022-09-16T16:07:01.640Z,7.83
2022-09-16T16:09:29.079Z,6.10
2022-09-16T16:12:00.419Z,6.13
2022-09-16T16:14:32.266Z,5.40
2022-09-16T16:17:13.473Z,5.20
2022-09-16T16:19:42.223Z,5.80
2022-09-16T16:22:09.621Z,5.73
2022-09-16T16:24:37.019Z,5.67
2022-09-16T16:27:04.167Z,6.47
2022-09-16T16:29:31.378Z,5.87
2022-09-16T16:32:09.666Z,6.17
2022-09-16T16:34:39.233Z,8.63
2022-09-16T16:37:07.357Z,6.30
2022-09-16T16:39:34.640Z,6.60
2022-09-16T16:42:02.121Z,5.83
2022-09-16T16:44:28.549Z,5.90
2022-09-16T16:46:55.549Z,5.63
2022-09-16T16:49:22.682Z,6.50
2022-09-16T16:51:51.086Z,7.30
2022-09-16T16:54:18.792Z,6.90
2022-09-16T16:56:46.538Z,7.50
2022-09-16T16:59:13.963Z,7.33
2022-09-16T17:01:43.321Z,5.50
2022-09-16T17:04:12.384Z,5.23
2022-09-16T17:06:40.045Z,6.43
2022-09-16T17:09:11.258Z,6.00
2022-09-16T17:11:58.810Z,5.87
2022-09-16T17:14:30.248Z,5.87
2022-09-16T17:16:57.377Z,6.63
2022-09-16T17:19:25.410Z,8.97
2022-09-16T17:21:53.681Z,5.93
2022-09-16T17:24:20.549Z,5.70
2022-09-16T17:26:47.279Z,6.00
2022-09-16T17:29:16.102Z,6.77
2022-09-16T17:31:43.136Z,5.90
2022-09-16T17:34:12.501Z,5.57
2022-09-16T17:36:43.460Z,5.13
2022-09-16T17:39:15.874Z,5.37
2022-09-16T17:41:45.970Z,5.87
2022-09-16T17:44:13.668Z,5.70
2022-09-16T17:46:41.367Z,5.47
2022-09-16T17:49:13.526Z,6.00
2022-09-16T17:51:40.162Z,5.03
2022-09-16T17:54:07.217Z,5.53
2022-09-16T17:56:33.748Z,5.73
2022-09-16T17:59:00.245Z,8.23
2022-09-16T18:01:27.392Z,7.33
2022-09-16T18:03:56.005Z,6.93
2022-09-16T18:06:28.480Z,6.60
2022-09-16T18:08:55.525Z,5.20
2022-09-16T18:11:22.534Z,6.10
2022-09-16T18:13:57.171Z,6.73
2022-09-16T18:16:24.514Z,7.47
2022-09-16T18:18:52.774Z,8.20
2022-09-16T18:21:20.105Z,7.10
2022-09-16T18:23:49.819Z,6.80
2022-09-16T18:26:16.474Z,5.77
2022-09-16T18:29:08.209Z,6.77
2022-09-16T18:31:32.529Z,6.00
2022-09-16T18:33:59.031Z,6.77
2022-09-16T18:36:26.516Z,6.70
2022-09-16T18:38:54.656Z,7.53
2022-09-16T18:41:30.409Z,6.87
2022-09-16T18:44:02.014Z,7.13
2022-09-16T18:46:33.459Z,7.70
2022-09-16T18:49:00.648Z,8.20
2022-09-16T18:51:27.937Z,6.00
2022-09-16T18:54:03.255Z,7.93
2022-09-16T18:56:34.494Z,8.53
2022-09-16T18:59:23.481Z,8.90
2022-09-16T19:01:54.145Z,8.53
2022-09-16T19:04:23.330Z,10.43
2022-09-16T19:06:51.817Z,7.13
2022-09-16T19:09:21.567Z,6.70
2022-09-16T19:11:49.408Z,8.60
2022-09-16T19:14:16.205Z,6.80
2022-09-16T19:16:44.707Z,6.83
2022-09-16T19:19:13.475Z,7.17
2022-09-16T19:21:40.942Z,8.07
2022-09-16T19:24:13.819Z,8.57
2022-09-16T19:26:40.821Z,7.50
2022-09-16T19:29:07.888Z,7.30
2022-09-16T19:31:35.970Z,8.10
2022-09-16T19:34:02.974Z,7.50
2022-09-16T19:36:31.243Z,7.97
2022-09-16T19:38:58.572Z,8.07
2022-09-16T19:41:31.907Z,7.30
2022-09-16T19:44:00.868Z,7.43
2022-09-16T19:46:29.037Z,7.07
2022-09-16T19:48:56.763Z,6.10
2022-09-16T19:51:24.319Z,6.43
2022-09-16T19:53:51.803Z,7.00
2022-09-16T19:56:29.928Z,7.50
2022-09-16T19:58:56.583Z,9.07
2022-09-16T20:01:34.322Z,11.73
2022-09-16T20:04:02.337Z,7.57
2022-09-16T20:06:32.546Z,6.67
2022-09-16T20:09:00.275Z,6.70
2022-09-16T20:11:44.542Z,8.23
2022-09-16T20:14:14.396Z,7.33
2022-09-16T20:16:41.088Z,7.57
2022-09-16T20:19:10.672Z,6.53
2022-09-16T20:21:37.851Z,7.13
2022-09-16T20:24:05.926Z,8.63
2022-09-16T20:26:34.215Z,7.83
2022-09-16T20:29:01.479Z,6.87
2022-09-16T20:31:31.042Z,8.23
2022-09-16T20:33:58.371Z,6.40
2022-09-16T20:36:26.431Z,6.67
2022-09-16T20:38:53.807Z,6.03
2022-09-16T20:41:22.589Z,5.30
2022-09-16T20:43:49.963Z,5.90
2022-09-16T20:46:22.491Z,5.83
2022-09-16T20:48:49.674Z,5.10
2022-09-16T20:51:19.092Z,5.23
2022-09-16T20:53:53.988Z,4.87
2022-09-16T20:56:21.171Z,4.87
2022-09-16T20:58:47.908Z,4.73
2022-09-16T21:01:15.635Z,5.60
2022-09-16T21:03:42.964Z,5.20
2022-09-16T21:06:14.713Z,6.00
2022-09-16T21:08:41.898Z,5.40
2022-09-16T21:11:11.618Z,5.50
2022-09-16T21:13:39.110Z,5.70
2022-09-16T21:16:05.748Z,5.83
2022-09-16T21:18:32.387Z,5.03
2022-09-16T21:21:07.537Z,6.47
2022-09-16T21:23:35.072Z,5.40
2022-09-16T21:26:03.559Z,5.30
2022-09-16T21:28:30.287Z,6.20
2022-09-16T21:31:07.838Z,6.20
2022-09-16T21:33:35.946Z,5.60
2022-09-16T21:36:07.779Z,6.03
2022-09-16T21:38:34.402Z,5.67
2022-09-16T21:41:03.239Z,6.40
2022-09-16T21:43:32.541Z,7.53
2022-09-16T21:45:59.933Z,6.30
2022-09-16T21:48:28.969Z,6.20
2022-09-16T21:51:01.904Z,7.83
2022-09-16T21:53:30.583Z,8.07
2022-09-16T21:56:05.484Z,7.10
2022-09-16T21:58:32.416Z,5.33
2022-09-16T22:01:13.028Z,6.60
2022-09-16T22:03:40.645Z,5.10
2022-09-16T22:06:09.011Z,6.27
2022-09-16T22:08:36.052Z,5.93
2022-09-16T22:11:04.768Z,5.60
2022-09-16T22:13:31.848Z,6.47
2022-09-16T22:15:58.648Z,7.00
2022-09-16T22:18:26.422Z,6.57
2022-09-16T22:20:52.954Z,5.80
2022-09-16T22:23:19.606Z,5.50
2022-09-16T22:25:46.739Z,6.53
2022-09-16T22:28:13.739Z,5.27
2022-09-16T22:30:40.939Z,5.50
2022-09-16T22:33:07.460Z,6.13
2022-09-16T22:35:35.337Z,5.53
2022-09-16T22:38:03.293Z,5.23
2022-09-16T22:40:31.023Z,5.50
2022-09-16T22:42:58.204Z,5.60
2022-09-16T22:45:25.017Z,4.57
2022-09-16T22:47:51.450Z,4.77
2022-09-16T22:50:17.919Z,5.20
2022-09-16T22:52:44.356Z,5.77
2022-09-16T22:55:10.898Z,7.70
2022-09-16T22:57:37.448Z,7.47
2022-09-16T23:00:04.197Z,6.03
2022-09-16T23:02:30.716Z,5.90
2022-09-16T23:04:57.330Z,6.13
2022-09-16T23:07:23.811Z,6.67
2022-09-16T23:09:50.292Z,6.00
2022-09-16T23:12:17.051Z,7.30
2022-09-16T23:14:43.623Z,6.90
2022-09-16T23:17:10.288Z,6.10
2022-09-16T23:19:36.772Z,5.70
2022-09-16T23:22:03.357Z,6.33
2022-09-16T23:24:29.786Z,5.97
2022-09-16T23:26:56.289Z,6.20
2022-09-16T23:29:22.793Z,6.20
2022-09-16T23:31:49.310Z,5.63
2022-09-16T23:34:20.400Z,6.17
2022-09-16T23:36:47.321Z,5.47
2022-09-16T23:39:15.358Z,6.57
2022-09-16T23:41:42.516Z,5.70
2022-09-16T23:44:10.580Z,6.10
2022-09-16T23:46:37.208Z,6.00
2022-09-16T23:49:03.760Z,5.80
2022-09-16T23:51:32.230Z,6.20
2022-09-16T23:53:59.293Z,6.50
2022-09-16T23:56:26.204Z,6.03
2022-09-16T23:58:52.937Z,5.33
